N67748 CYXU-CYKF
Flight info
| Callsign | N67748 |
|---|---|
| Flight time | 0h 16m |
| Altitude | 3000 |
| Route | CYXU/15 VFR NORTHEAST |
| Aircraft | B06 |
Departure
| Time | 2026-05-06 00:24 |
|---|---|
| Airport | London International Airport (CYXU) |
Arrival
| Time | 2026-05-06 00:41 |
|---|---|
| Airport | Region of Waterloo International Airport (CYKF) |
| Time | Latitude | Longitude | Altitude | Speed | Heading |
|---|---|---|---|---|---|
| 2026-05-06 00:24 | 43.12224 | -80.96727 | 1888 ft | 114 kts | 49° |
| 2026-05-06 00:24 | 43.12679 | -80.95835 | 2044 ft | 115 kts | 53° |
| 2026-05-06 00:24 | 43.13121 | -80.94876 | 2092 ft | 119 kts | 50° |
| 2026-05-06 00:25 | 43.13601 | -80.93929 | 2183 ft | 117 kts | 48° |
| 2026-05-06 00:25 | 43.14145 | -80.93025 | 2130 ft | 126 kts | 41° |
| 2026-05-06 00:25 | 43.14741 | -80.92115 | 2012 ft | 132 kts | 43° |
| 2026-05-06 00:25 | 43.15341 | -80.91115 | 1747 ft | 137 kts | 43° |
| 2026-05-06 00:26 | 43.15951 | -80.90189 | 1724 ft | 127 kts | 38° |
| 2026-05-06 00:26 | 43.16430 | -80.89329 | 2074 ft | 94 kts | 71° |
| 2026-05-06 00:26 | 43.16618 | -80.88301 | 2034 ft | 122 kts | 70° |
| 2026-05-06 00:26 | 43.17007 | -80.87276 | 2081 ft | 124 kts | 46° |
| 2026-05-06 00:27 | 43.17635 | -80.86510 | 2028 ft | 125 kts | 28° |
| 2026-05-06 00:27 | 43.18252 | -80.85626 | 1888 ft | 131 kts | 51° |
| 2026-05-06 00:27 | 43.18555 | -80.84738 | 2507 ft | 60 kts | 65° |
| 2026-05-06 00:27 | 43.18655 | -80.84101 | 2409 ft | 113 kts | 71° |
| 2026-05-06 00:28 | 43.18841 | -80.83189 | 2287 ft | 73 kts | 79° |
| 2026-05-06 00:28 | 43.18929 | -80.82643 | 2176 ft | 72 kts | 46° |
| 2026-05-06 00:28 | 43.19132 | -80.81773 | 1709 ft | 99 kts | 64° |
| 2026-05-06 00:28 | 43.19397 | -80.80902 | 1509 ft | 96 kts | 52° |
| 2026-05-06 00:29 | 43.19763 | -80.80185 | 1326 ft | 95 kts | 58° |
| 2026-05-06 00:29 | 43.20036 | -80.79428 | 1903 ft | 78 kts | 58° |
| 2026-05-06 00:29 | 43.20106 | -80.78923 | 2254 ft | 38 kts | 71° |
| 2026-05-06 00:29 | 43.20182 | -80.78309 | 2322 ft | 117 kts | 62° |
| 2026-05-06 00:30 | 43.20647 | -80.77258 | 1828 ft | 138 kts | 41° |
| 2026-05-06 00:30 | 43.21310 | -80.76204 | 1404 ft | 138 kts | 39° |
| 2026-05-06 00:30 | 43.21888 | -80.75260 | 1420 ft | 119 kts | 46° |
| 2026-05-06 00:30 | 43.22061 | -80.74917 | 1361 ft | 123 kts | 51° |
| 2026-05-06 00:31 | 43.22339 | -80.74295 | 1355 ft | 120 kts | 54° |
| 2026-05-06 00:31 | 43.22812 | -80.73356 | 1340 ft | 121 kts | 51° |
| 2026-05-06 00:31 | 43.23398 | -80.72522 | 1261 ft | 123 kts | 41° |
| 2026-05-06 00:31 | 43.23965 | -80.71724 | 1416 ft | 116 kts | 41° |
| 2026-05-06 00:32 | 43.24495 | -80.70825 | 1368 ft | 122 kts | 51° |
| 2026-05-06 00:32 | 43.24906 | -80.69809 | 1362 ft | 121 kts | 52° |
| 2026-05-06 00:32 | 43.25241 | -80.69084 | 2141 ft | 61 kts | 71° |
| 2026-05-06 00:32 | 43.25538 | -80.68534 | 2419 ft | 106 kts | 27° |
| 2026-05-06 00:33 | 43.26288 | -80.67945 | 2010 ft | 131 kts | 19° |
| 2026-05-06 00:33 | 43.26970 | -80.67017 | 1516 ft | 135 kts | 45° |
| 2026-05-06 00:33 | 43.27474 | -80.66004 | 1508 ft | 123 kts | 43° |
| 2026-05-06 00:33 | 43.28048 | -80.65124 | 1414 ft | 125 kts | 41° |
| 2026-05-06 00:34 | 43.28684 | -80.64308 | 1337 ft | 125 kts | 33° |
| 2026-05-06 00:34 | 43.29331 | -80.63530 | 1225 ft | 126 kts | 39° |
| 2026-05-06 00:34 | 43.29842 | -80.62651 | 1272 ft | 116 kts | 50° |
| 2026-05-06 00:34 | 43.30239 | -80.61768 | 1649 ft | 82 kts | 55° |
| 2026-05-06 00:35 | 43.30289 | -80.61472 | 2066 ft | 18 kts | 73° |
| 2026-05-06 00:35 | 43.30368 | -80.61049 | 1720 ft | 109 kts | 83° |
| 2026-05-06 00:35 | 43.30738 | -80.60095 | 1519 ft | 124 kts | 49° |
| 2026-05-06 00:35 | 43.31275 | -80.59204 | 1254 ft | 121 kts | 42° |
| 2026-05-06 00:36 | 43.31609 | -80.58508 | 1766 ft | 41 kts | 85° |
| 2026-05-06 00:36 | 43.31839 | -80.57932 | 1886 ft | 94 kts | 54° |
| 2026-05-06 00:36 | 43.32323 | -80.57199 | 1654 ft | 123 kts | 34° |
| 2026-05-06 00:36 | 43.32925 | -80.56321 | 1481 ft | 124 kts | 48° |
| 2026-05-06 00:37 | 43.33412 | -80.55358 | 1514 ft | 121 kts | 45° |
| 2026-05-06 00:37 | 43.34046 | -80.54577 | 1448 ft | 124 kts | 25° |
| 2026-05-06 00:37 | 43.34780 | -80.53989 | 1375 ft | 125 kts | 28° |
| 2026-05-06 00:37 | 43.35330 | -80.53126 | 1424 ft | 121 kts | 53° |
| 2026-05-06 00:38 | 43.35826 | -80.52230 | 1523 ft | 118 kts | 39° |
| 2026-05-06 00:38 | 43.36236 | -80.51712 | 1487 ft | 122 kts | 39° |
| 2026-05-06 00:38 | 43.36821 | -80.50867 | 1543 ft | 117 kts | 36° |
| 2026-05-06 00:38 | 43.36950 | -80.50686 | 1635 ft | 110 kts | 42° |
| 2026-05-06 00:39 | 43.37574 | -80.50004 | 1606 ft | 116 kts | 28° |
| 2026-05-06 00:39 | 43.38267 | -80.49296 | 1379 ft | 122 kts | 36° |
| 2026-05-06 00:39 | 43.38514 | -80.48595 | 1586 ft | 94 kts | 60° |
| 2026-05-06 00:39 | 43.38827 | -80.47846 | 1586 ft | 108 kts | 28° |
| 2026-05-06 00:40 | 43.39619 | -80.47601 | 1406 ft | 123 kts | 10° |
| 2026-05-06 00:40 | 43.40148 | -80.46786 | 1407 ft | 112 kts | 67° |
| 2026-05-06 00:40 | 43.40180 | -80.45690 | 1401 ft | 98 kts | 91° |
| 2026-05-06 00:40 | 43.40136 | -80.44913 | 1393 ft | 78 kts | 78° |
| 2026-05-06 00:41 | 43.40499 | -80.44423 | 1343 ft | 75 kts | 25° |
| 2026-05-06 00:41 | 43.40932 | -80.44068 | 1327 ft | 49 kts | 33° |
| 2026-05-06 00:41 | 43.41136 | -80.43678 | 1201 ft | 58 kts | 44° |
| 2026-05-06 00:41 | 43.41400 | -80.43491 | 1156 ft | 59 kts | 39° |
| 2026-05-06 00:42 | 43.41822 | -80.43391 | 1239 ft | 64 kts | 22° |
| 2026-05-06 00:42 | 43.42273 | -80.43133 | 1278 ft | 70 kts | 19° |
| 2026-05-06 00:42 | 43.42765 | -80.42881 | 1168 ft | 80 kts | 17° |
| 2026-05-06 00:42 | 43.43226 | -80.42532 | 1263 ft | 72 kts | 27° |
| 2026-05-06 00:43 | 43.43468 | -80.41890 | 1234 ft | 82 kts | 65° |
| 2026-05-06 00:43 | 43.43710 | -80.41204 | 1235 ft | 83 kts | 60° |
| 2026-05-06 00:43 | 43.43928 | -80.40443 | 1166 ft | 89 kts | 56° |
| 2026-05-06 00:43 | 43.44128 | -80.39870 | 1169 ft | 54 kts | 58° |
| 2026-05-06 00:44 | 43.44346 | -80.39444 | 1117 ft | 63 kts | 54° |
| 2026-05-06 00:44 | 43.44684 | -80.39102 | 1176 ft | 65 kts | 46° |
| 2026-05-06 00:44 | 43.45116 | -80.38911 | 1095 ft | 66 kts | 29° |
| 2026-05-06 00:44 | 43.45390 | -80.38506 | 1065 ft | 49 kts | 43° |
| 2026-05-06 00:45 | 43.45552 | -80.38406 | 1091 ft | 3 kts | 72° |
| 2026-05-06 00:45 | 43.45554 | -80.38362 | 1031 ft | 0 kts | 76° |
| 2026-05-06 00:45 | 43.45557 | -80.38373 | 1031 ft | 0 kts | 293° |
| 2026-05-06 00:45 | 43.45537 | -80.38371 | 1033 ft | 12 kts | 135° |
| 2026-05-06 00:46 | 43.45383 | -80.38279 | 1031 ft | 11 kts | 73° |
| 2026-05-06 00:46 | 43.45416 | -80.38166 | 1052 ft | 16 kts | 43° |
| 2026-05-06 00:46 | 43.45508 | -80.38269 | 1043 ft | 24 kts | 305° |
| 2026-05-06 00:46 | 43.45604 | -80.38496 | 1032 ft | 24 kts | 307° |
| 2026-05-06 00:47 | 43.45612 | -80.38521 | 1031 ft | 0 kts | 307° |
| 2026-05-06 00:47 | 43.45609 | -80.38520 | 1031 ft | 0 kts | 33° |
| 2026-05-06 00:49 | 43.45609 | -80.38519 | 1046 ft | 3 kts | 31° |
| 2026-05-06 00:49 | 43.45563 | -80.38458 | 1031 ft | 0 kts | 31° |
| 2026-05-06 00:59 | 43.45639 | -80.38432 | 1032 ft | 9 kts | 317° |
| 2026-05-06 00:59 | 43.45704 | -80.38509 | 1033 ft | 8 kts | 318° |
| 2026-05-06 00:59 | 43.45761 | -80.38566 | 1033 ft | 6 kts | 75° |
| 2026-05-06 00:59 | 43.45818 | -80.38390 | 1033 ft | 32 kts | 67° |
| 2026-05-06 01:00 | 43.45935 | -80.38065 | 1032 ft | 39 kts | 64° |
| 2026-05-06 01:00 | 43.46014 | -80.37839 | 1032 ft | 17 kts | 65° |
| 2026-05-06 01:00 | 43.46052 | -80.37715 | 1033 ft | 5 kts | 66° |
| 2026-05-06 01:00 | 43.46057 | -80.37700 | 1031 ft | 0 kts | 67° |
| 2026-05-06 01:01 | 43.46054 | -80.37700 | 1031 ft | 0 kts | 338° |
| 2026-05-06 01:01 | 43.46072 | -80.37707 | 1032 ft | 4 kts | 353° |
| 2026-05-06 01:01 | 43.46115 | -80.37696 | 1032 ft | 11 kts | 15° |
| 2026-05-06 01:02 | 43.46133 | -80.37686 | 1031 ft | 0 kts | 15° |
| 2026-05-06 01:03 | 43.46132 | -80.37680 | 1031 ft | 0 kts | 223° |
| 2026-05-06 01:03 | 43.46055 | -80.37761 | 1033 ft | 37 kts | 233° |
| 2026-05-06 01:03 | 43.45893 | -80.38228 | 1039 ft | 69 kts | 250° |
| 2026-05-06 01:03 | 43.45603 | -80.38499 | 1118 ft | 13 kts | 44° |
| 2026-05-06 01:04 | 43.45610 | -80.38547 | 1032 ft | 0 kts | 69° |